sensor_id;sensor_type;location;lat;lon;timestamp;temperature;humidity
44182;DHT22;30436;48.888;9.202;2022-10-16T00:01:28;17.30;99.90
44182;DHT22;30436;48.888;9.202;2022-10-16T00:03:55;17.30;99.90
44182;DHT22;30436;48.888;9.202;2022-10-16T00:06:22;17.30;99.90
44182;DHT22;30436;48.888;9.202;2022-10-16T00:08:48;17.50;99.90
44182;DHT22;30436;48.888;9.202;2022-10-16T00:11:23;17.40;99.90
44182;DHT22;30436;48.888;9.202;2022-10-16T00:13:51;17.40;99.90
44182;DHT22;30436;48.888;9.202;2022-10-16T00:16:18;17.50;99.90
44182;DHT22;30436;48.888;9.202;2022-10-16T00:18:44;17.50;99.90
44182;DHT22;30436;48.888;9.202;2022-10-16T00:21:12;17.40;99.90
44182;DHT22;30436;48.888;9.202;2022-10-16T00:23:38;17.40;99.90
44182;DHT22;30436;48.888;9.202;2022-10-16T00:26:07;17.40;99.90
44182;DHT22;30436;48.888;9.202;2022-10-16T00:28:34;17.40;99.90
44182;DHT22;30436;48.888;9.202;2022-10-16T00:31:04;17.30;99.90
44182;DHT22;30436;48.888;9.202;2022-10-16T00:33:30;17.40;99.90
44182;DHT22;30436;48.888;9.202;2022-10-16T00:35:58;17.20;99.90
44182;DHT22;30436;48.888;9.202;2022-10-16T00:38:24;17.30;99.90
44182;DHT22;30436;48.888;9.202;2022-10-16T00:40:50;17.50;99.90
44182;DHT22;30436;48.888;9.202;2022-10-16T00:43:41;17.30;99.90
44182;DHT22;30436;48.888;9.202;2022-10-16T00:48:39;17.30;99.90
44182;DHT22;30436;48.888;9.202;2022-10-16T00:51:08;17.20;99.90
44182;DHT22;30436;48.888;9.202;2022-10-16T00:53:34;17.20;99.90
44182;DHT22;30436;48.888;9.202;2022-10-16T00:56:01;17.20;99.90
44182;DHT22;30436;48.888;9.202;2022-10-16T00:58:27;17.10;99.90
44182;DHT22;30436;48.888;9.202;2022-10-16T01:02:58;17.10;99.90
44182;DHT22;30436;48.888;9.202;2022-10-16T01:05:30;17.20;99.90
44182;DHT22;30436;48.888;9.202;2022-10-16T01:08:06;17.20;99.90
44182;DHT22;30436;48.888;9.202;2022-10-16T01:10:38;17.20;99.90
44182;DHT22;30436;48.888;9.202;2022-10-16T01:13:24;17.20;99.90
44182;DHT22;30436;48.888;9.202;2022-10-16T01:15:56;17.20;99.90
44182;DHT22;30436;48.888;9.202;2022-10-16T01:18:34;17.20;99.90
44182;DHT22;30436;48.888;9.202;2022-10-16T01:21:04;17.20;99.90
44182;DHT22;30436;48.888;9.202;2022-10-16T01:26:35;17.20;99.90
44182;DHT22;30436;48.888;9.202;2022-10-16T01:29:07;17.10;99.90
44182;DHT22;30436;48.888;9.202;2022-10-16T01:31:37;17.00;99.90
44182;DHT22;30436;48.888;9.202;2022-10-16T01:34:15;17.10;99.90
44182;DHT22;30436;48.888;9.202;2022-10-16T01:36:54;17.10;99.90
44182;DHT22;30436;48.888;9.202;2022-10-16T01:39:26;17.20;99.90
44182;DHT22;30436;48.888;9.202;2022-10-16T01:42:07;17.20;99.90
44182;DHT22;30436;48.888;9.202;2022-10-16T01:44:36;17.20;99.90
44182;DHT22;30436;48.888;9.202;2022-10-16T01:47:04;17.20;99.90
44182;DHT22;30436;48.888;9.202;2022-10-16T01:49:33;17.40;99.90
44182;DHT22;30436;48.888;9.202;2022-10-16T01:52:03;17.30;99.90
44182;DHT22;30436;48.888;9.202;2022-10-16T01:54:32;17.40;99.90
44182;DHT22;30436;48.888;9.202;2022-10-16T01:56:59;17.30;99.90
44182;DHT22;30436;48.888;9.202;2022-10-16T01:59:30;17.40;99.90
44182;DHT22;30436;48.888;9.202;2022-10-16T02:02:00;17.30;99.90
44182;DHT22;30436;48.888;9.202;2022-10-16T02:04:31;17.30;99.90
44182;DHT22;30436;48.888;9.202;2022-10-16T02:06:58;17.20;99.90
44182;DHT22;30436;48.888;9.202;2022-10-16T02:09:25;17.30;99.90
44182;DHT22;30436;48.888;9.202;2022-10-16T02:11:53;17.40;99.90
44182;DHT22;30436;48.888;9.202;2022-10-16T02:14:21;17.40;99.90
44182;DHT22;30436;48.888;9.202;2022-10-16T02:16:49;17.40;99.90
44182;DHT22;30436;48.888;9.202;2022-10-16T02:19:17;17.30;99.90
44182;DHT22;30436;48.888;9.202;2022-10-16T02:21:55;17.30;99.90
44182;DHT22;30436;48.888;9.202;2022-10-16T02:24:45;17.30;99.90
44182;DHT22;30436;48.888;9.202;2022-10-16T02:29:55;17.50;99.90
44182;DHT22;30436;48.888;9.202;2022-10-16T02:32:28;17.50;99.90
44182;DHT22;30436;48.888;9.202;2022-10-16T02:34:56;17.50;99.90
44182;DHT22;30436;48.888;9.202;2022-10-16T02:37:24;17.40;99.90
44182;DHT22;30436;48.888;9.202;2022-10-16T02:39:51;17.50;99.90
44182;DHT22;30436;48.888;9.202;2022-10-16T02:42:18;17.50;99.90
44182;DHT22;30436;48.888;9.202;2022-10-16T02:44:44;17.50;99.90
44182;DHT22;30436;48.888;9.202;2022-10-16T02:47:09;17.40;99.90
44182;DHT22;30436;48.888;9.202;2022-10-16T02:49:35;17.40;99.90
44182;DHT22;30436;48.888;9.202;2022-10-16T02:52:01;17.50;99.90
44182;DHT22;30436;48.888;9.202;2022-10-16T02:54:26;17.40;99.90
44182;DHT22;30436;48.888;9.202;2022-10-16T02:56:52;17.50;99.90
44182;DHT22;30436;48.888;9.202;2022-10-16T02:59:18;17.50;99.90
44182;DHT22;30436;48.888;9.202;2022-10-16T03:03:00;17.40;99.90
44182;DHT22;30436;48.888;9.202;2022-10-16T03:05:26;17.60;99.90
44182;DHT22;30436;48.888;9.202;2022-10-16T03:07:52;17.40;99.90
44182;DHT22;30436;48.888;9.202;2022-10-16T03:10:21;17.30;99.90
44182;DHT22;30436;48.888;9.202;2022-10-16T03:12:46;17.30;99.90
44182;DHT22;30436;48.888;9.202;2022-10-16T03:15:12;17.30;99.90
44182;DHT22;30436;48.888;9.202;2022-10-16T03:17:38;17.30;99.90
44182;DHT22;30436;48.888;9.202;2022-10-16T03:20:04;17.30;99.90
44182;DHT22;30436;48.888;9.202;2022-10-16T03:22:30;17.40;99.90
44182;DHT22;30436;48.888;9.202;2022-10-16T03:24:55;17.30;99.90
44182;DHT22;30436;48.888;9.202;2022-10-16T03:27:21;17.40;99.90
44182;DHT22;30436;48.888;9.202;2022-10-16T03:29:47;17.20;99.90
44182;DHT22;30436;48.888;9.202;2022-10-16T03:32:17;17.20;99.90
44182;DHT22;30436;48.888;9.202;2022-10-16T03:34:43;17.20;99.90
44182;DHT22;30436;48.888;9.202;2022-10-16T03:37:09;17.20;99.90
44182;DHT22;30436;48.888;9.202;2022-10-16T03:39:35;17.30;99.90
44182;DHT22;30436;48.888;9.202;2022-10-16T03:42:00;17.30;99.90
44182;DHT22;30436;48.888;9.202;2022-10-16T03:44:26;17.30;99.90
44182;DHT22;30436;48.888;9.202;2022-10-16T03:46:52;17.20;99.90
44182;DHT22;30436;48.888;9.202;2022-10-16T03:49:17;17.10;99.90
44182;DHT22;30436;48.888;9.202;2022-10-16T03:51:43;17.10;99.90
44182;DHT22;30436;48.888;9.202;2022-10-16T03:54:10;17.10;99.90
44182;DHT22;30436;48.888;9.202;2022-10-16T03:56:36;17.10;99.90
44182;DHT22;30436;48.888;9.202;2022-10-16T03:59:01;17.30;99.90
44182;DHT22;30436;48.888;9.202;2022-10-16T04:01:27;17.20;99.90
44182;DHT22;30436;48.888;9.202;2022-10-16T04:03:52;17.30;99.90
44182;DHT22;30436;48.888;9.202;2022-10-16T04:06:18;17.20;99.90
44182;DHT22;30436;48.888;9.202;2022-10-16T04:08:44;17.10;99.90
44182;DHT22;30436;48.888;9.202;2022-10-16T04:11:10;17.10;99.90
44182;DHT22;30436;48.888;9.202;2022-10-16T04:13:36;17.10;99.90
44182;DHT22;30436;48.888;9.202;2022-10-16T04:16:01;17.10;99.90
44182;DHT22;30436;48.888;9.202;2022-10-16T04:18:27;17.10;99.90
44182;DHT22;30436;48.888;9.202;2022-10-16T04:20:53;17.10;99.90
44182;DHT22;30436;48.888;9.202;2022-10-16T04:23:19;17.00;99.90
44182;DHT22;30436;48.888;9.202;2022-10-16T04:25:45;16.90;99.90
44182;DHT22;30436;48.888;9.202;2022-10-16T04:28:11;16.90;99.90
44182;DHT22;30436;48.888;9.202;2022-10-16T04:30:38;16.80;99.90
44182;DHT22;30436;48.888;9.202;2022-10-16T04:33:05;16.80;99.90
44182;DHT22;30436;48.888;9.202;2022-10-16T04:35:30;16.80;99.90
44182;DHT22;30436;48.888;9.202;2022-10-16T04:37:59;16.90;99.90
44182;DHT22;30436;48.888;9.202;2022-10-16T04:40:25;16.90;99.90
44182;DHT22;30436;48.888;9.202;2022-10-16T04:42:50;17.00;99.90
44182;DHT22;30436;48.888;9.202;2022-10-16T04:45:16;17.10;99.90
44182;DHT22;30436;48.888;9.202;2022-10-16T04:47:41;17.00;99.90
44182;DHT22;30436;48.888;9.202;2022-10-16T04:50:07;17.10;99.90
44182;DHT22;30436;48.888;9.202;2022-10-16T04:52:34;17.10;99.90
44182;DHT22;30436;48.888;9.202;2022-10-16T04:54:59;17.00;99.90
44182;DHT22;30436;48.888;9.202;2022-10-16T04:57:28;17.10;99.90
44182;DHT22;30436;48.888;9.202;2022-10-16T04:59:54;17.10;99.90
44182;DHT22;30436;48.888;9.202;2022-10-16T05:02:20;17.00;99.90
44182;DHT22;30436;48.888;9.202;2022-10-16T05:04:45;17.10;99.90
44182;DHT22;30436;48.888;9.202;2022-10-16T05:07:11;17.10;99.90
44182;DHT22;30436;48.888;9.202;2022-10-16T05:09:37;17.10;99.90
44182;DHT22;30436;48.888;9.202;2022-10-16T05:12:04;17.10;99.90
44182;DHT22;30436;48.888;9.202;2022-10-16T05:14:29;17.10;99.90
44182;DHT22;30436;48.888;9.202;2022-10-16T05:16:55;17.10;99.90
44182;DHT22;30436;48.888;9.202;2022-10-16T05:19:21;17.00;99.90
44182;DHT22;30436;48.888;9.202;2022-10-16T05:21:46;17.00;99.90
44182;DHT22;30436;48.888;9.202;2022-10-16T05:24:12;17.00;99.90
44182;DHT22;30436;48.888;9.202;2022-10-16T05:26:38;17.00;99.90
44182;DHT22;30436;48.888;9.202;2022-10-16T05:29:03;17.10;99.90
44182;DHT22;30436;48.888;9.202;2022-10-16T05:31:29;17.10;99.90
44182;DHT22;30436;48.888;9.202;2022-10-16T05:34:01;17.10;99.90
44182;DHT22;30436;48.888;9.202;2022-10-16T05:36:27;17.00;99.90
44182;DHT22;30436;48.888;9.202;2022-10-16T05:38:53;17.10;99.90
44182;DHT22;30436;48.888;9.202;2022-10-16T05:41:19;17.00;99.90
44182;DHT22;30436;48.888;9.202;2022-10-16T05:43:50;17.00;99.90
44182;DHT22;30436;48.888;9.202;2022-10-16T05:46:16;16.90;99.90
44182;DHT22;30436;48.888;9.202;2022-10-16T05:48:43;16.90;99.90
44182;DHT22;30436;48.888;9.202;2022-10-16T05:51:13;16.90;99.90
44182;DHT22;30436;48.888;9.202;2022-10-16T05:53:40;17.00;99.90
44182;DHT22;30436;48.888;9.202;2022-10-16T05:56:07;16.90;99.90
44182;DHT22;30436;48.888;9.202;2022-10-16T05:58:36;16.90;99.90
44182;DHT22;30436;48.888;9.202;2022-10-16T06:01:05;16.80;99.90
44182;DHT22;30436;48.888;9.202;2022-10-16T06:03:30;16.70;99.90
44182;DHT22;30436;48.888;9.202;2022-10-16T06:05:56;16.80;99.90
44182;DHT22;30436;48.888;9.202;2022-10-16T06:08:23;16.80;99.90
44182;DHT22;30436;48.888;9.202;2022-10-16T06:10:49;16.80;99.90
44182;DHT22;30436;48.888;9.202;2022-10-16T06:13:25;16.90;99.90
44182;DHT22;30436;48.888;9.202;2022-10-16T06:15:51;16.90;99.90
44182;DHT22;30436;48.888;9.202;2022-10-16T06:18:16;16.90;99.90
44182;DHT22;30436;48.888;9.202;2022-10-16T06:20:42;16.80;99.90
44182;DHT22;30436;48.888;9.202;2022-10-16T06:23:08;16.80;99.90
44182;DHT22;30436;48.888;9.202;2022-10-16T06:25:33;16.90;99.90
44182;DHT22;30436;48.888;9.202;2022-10-16T06:27:59;16.70;99.90
44182;DHT22;30436;48.888;9.202;2022-10-16T06:30:25;16.70;99.90
44182;DHT22;30436;48.888;9.202;2022-10-16T06:32:50;16.70;99.90
44182;DHT22;30436;48.888;9.202;2022-10-16T06:35:16;16.70;99.90
44182;DHT22;30436;48.888;9.202;2022-10-16T06:37:41;16.70;99.90
44182;DHT22;30436;48.888;9.202;2022-10-16T06:40:07;16.60;99.90
44182;DHT22;30436;48.888;9.202;2022-10-16T06:42:33;16.60;99.90
44182;DHT22;30436;48.888;9.202;2022-10-16T06:44:59;16.70;99.90
44182;DHT22;30436;48.888;9.202;2022-10-16T06:47:25;16.70;99.90
44182;DHT22;30436;48.888;9.202;2022-10-16T06:49:50;16.80;99.90
44182;DHT22;30436;48.888;9.202;2022-10-16T06:52:16;16.80;99.90
44182;DHT22;30436;48.888;9.202;2022-10-16T06:54:41;16.80;99.90
44182;DHT22;30436;48.888;9.202;2022-10-16T06:57:07;16.70;99.90
44182;DHT22;30436;48.888;9.202;2022-10-16T06:59:33;16.60;99.90
44182;DHT22;30436;48.888;9.202;2022-10-16T07:02:45;16.80;99.90
44182;DHT22;30436;48.888;9.202;2022-10-16T07:05:11;16.80;99.90
44182;DHT22;30436;48.888;9.202;2022-10-16T07:07:36;16.90;99.90
44182;DHT22;30436;48.888;9.202;2022-10-16T07:10:02;17.00;99.90
44182;DHT22;30436;48.888;9.202;2022-10-16T07:12:28;17.00;99.90
44182;DHT22;30436;48.888;9.202;2022-10-16T07:14:53;17.10;99.90
44182;DHT22;30436;48.888;9.202;2022-10-16T07:17:20;17.30;99.90
44182;DHT22;30436;48.888;9.202;2022-10-16T07:19:45;17.10;99.90
44182;DHT22;30436;48.888;9.202;2022-10-16T07:22:11;17.20;99.90
44182;DHT22;30436;48.888;9.202;2022-10-16T07:24:37;17.00;99.90
44182;DHT22;30436;48.888;9.202;2022-10-16T07:27:02;17.20;99.90
44182;DHT22;30436;48.888;9.202;2022-10-16T07:29:28;17.20;99.90
44182;DHT22;30436;48.888;9.202;2022-10-16T07:31:54;17.20;99.90
44182;DHT22;30436;48.888;9.202;2022-10-16T07:34:21;17.30;99.90
44182;DHT22;30436;48.888;9.202;2022-10-16T07:36:48;17.20;99.90
44182;DHT22;30436;48.888;9.202;2022-10-16T07:39:15;17.20;99.90
44182;DHT22;30436;48.888;9.202;2022-10-16T07:41:40;17.30;99.90
44182;DHT22;30436;48.888;9.202;2022-10-16T07:44:06;17.20;99.90
44182;DHT22;30436;48.888;9.202;2022-10-16T07:46:32;17.20;99.90
44182;DHT22;30436;48.888;9.202;2022-10-16T07:48:59;17.20;99.90
44182;DHT22;30436;48.888;9.202;2022-10-16T07:51:25;17.20;99.90
44182;DHT22;30436;48.888;9.202;2022-10-16T07:53:52;17.10;99.90
44182;DHT22;30436;48.888;9.202;2022-10-16T07:56:19;17.10;99.90
44182;DHT22;30436;48.888;9.202;2022-10-16T07:58:45;17.20;99.90
44182;DHT22;30436;48.888;9.202;2022-10-16T08:01:13;17.20;99.90
44182;DHT22;30436;48.888;9.202;2022-10-16T08:03:42;17.20;99.90
44182;DHT22;30436;48.888;9.202;2022-10-16T08:06:08;17.30;99.90
44182;DHT22;30436;48.888;9.202;2022-10-16T08:08:34;17.40;99.90
44182;DHT22;30436;48.888;9.202;2022-10-16T08:11:00;17.40;99.90
44182;DHT22;30436;48.888;9.202;2022-10-16T08:13:29;17.50;99.90
44182;DHT22;30436;48.888;9.202;2022-10-16T08:15:54;17.60;99.90
44182;DHT22;30436;48.888;9.202;2022-10-16T08:18:20;17.50;99.90
44182;DHT22;30436;48.888;9.202;2022-10-16T08:20:46;17.70;99.90
44182;DHT22;30436;48.888;9.202;2022-10-16T08:23:12;17.80;99.90
44182;DHT22;30436;48.888;9.202;2022-10-16T08:25:39;17.90;99.90
44182;DHT22;30436;48.888;9.202;2022-10-16T08:28:06;18.10;99.90
44182;DHT22;30436;48.888;9.202;2022-10-16T08:30:33;18.20;99.90
44182;DHT22;30436;48.888;9.202;2022-10-16T08:32:58;18.30;99.90
44182;DHT22;30436;48.888;9.202;2022-10-16T08:35:24;18.30;99.90
44182;DHT22;30436;48.888;9.202;2022-10-16T08:37:50;18.40;99.90
44182;DHT22;30436;48.888;9.202;2022-10-16T08:40:22;18.30;99.90
44182;DHT22;30436;48.888;9.202;2022-10-16T08:46:18;18.50;99.90
44182;DHT22;30436;48.888;9.202;2022-10-16T08:48:48;18.70;99.90
44182;DHT22;30436;48.888;9.202;2022-10-16T08:51:24;18.80;99.90
44182;DHT22;30436;48.888;9.202;2022-10-16T08:53:56;18.80;99.90
44182;DHT22;30436;48.888;9.202;2022-10-16T08:56:23;18.80;99.90
44182;DHT22;30436;48.888;9.202;2022-10-16T08:58:49;18.90;99.90
44182;DHT22;30436;48.888;9.202;2022-10-16T09:01:16;19.00;99.90
44182;DHT22;30436;48.888;9.202;2022-10-16T09:12:24;19.00;99.90
44182;DHT22;30436;48.888;9.202;2022-10-16T09:15:13;18.90;99.90
44182;DHT22;30436;48.888;9.202;2022-10-16T09:20:32;19.00;99.90
44182;DHT22;30436;48.888;9.202;2022-10-16T09:23:19;19.10;99.90
44182;DHT22;30436;48.888;9.202;2022-10-16T09:25:47;19.20;99.90
44182;DHT22;30436;48.888;9.202;2022-10-16T09:28:16;19.20;99.90
44182;DHT22;30436;48.888;9.202;2022-10-16T09:30:42;19.20;99.90
44182;DHT22;30436;48.888;9.202;2022-10-16T09:33:09;19.40;99.90
44182;DHT22;30436;48.888;9.202;2022-10-16T09:35:44;19.50;99.90
44182;DHT22;30436;48.888;9.202;2022-10-16T09:38:34;19.60;99.90
44182;DHT22;30436;48.888;9.202;2022-10-16T09:41:09;19.60;99.90
44182;DHT22;30436;48.888;9.202;2022-10-16T09:46:32;19.90;99.90
44182;DHT22;30436;48.888;9.202;2022-10-16T09:49:04;20.10;99.90
44182;DHT22;30436;48.888;9.202;2022-10-16T09:51:36;20.20;99.90
44182;DHT22;30436;48.888;9.202;2022-10-16T09:56:38;20.30;99.90
44182;DHT22;30436;48.888;9.202;2022-10-16T09:59:14;20.70;99.90
44182;DHT22;30436;48.888;9.202;2022-10-16T10:01:51;20.70;99.90
44182;DHT22;30436;48.888;9.202;2022-10-16T10:04:19;20.90;99.90
44182;DHT22;30436;48.888;9.202;2022-10-16T10:06:47;21.20;99.90
44182;DHT22;30436;48.888;9.202;2022-10-16T10:11:52;21.40;99.90
44182;DHT22;30436;48.888;9.202;2022-10-16T10:14:22;21.50;99.90
44182;DHT22;30436;48.888;9.202;2022-10-16T10:16:50;21.50;99.90
44182;DHT22;30436;48.888;9.202;2022-10-16T10:19:21;21.60;99.90
44182;DHT22;30436;48.888;9.202;2022-10-16T10:21:48;21.80;99.90
44182;DHT22;30436;48.888;9.202;2022-10-16T10:24:16;22.10;99.90
44182;DHT22;30436;48.888;9.202;2022-10-16T10:26:50;22.10;99.90
44182;DHT22;30436;48.888;9.202;2022-10-16T10:32:23;22.80;99.90
44182;DHT22;30436;48.888;9.202;2022-10-16T10:45:59;23.40;99.90
44182;DHT22;30436;48.888;9.202;2022-10-16T10:51:30;23.20;99.90
44182;DHT22;30436;48.888;9.202;2022-10-16T10:54:24;23.30;99.90
44182;DHT22;30436;48.888;9.202;2022-10-16T10:56:58;23.30;99.90
44182;DHT22;30436;48.888;9.202;2022-10-16T11:02:26;23.80;99.90
44182;DHT22;30436;48.888;9.202;2022-10-16T11:05:15;24.50;99.90
44182;DHT22;30436;48.888;9.202;2022-10-16T11:11:06;25.40;99.90
44182;DHT22;30436;48.888;9.202;2022-10-16T11:13:58;26.20;99.90
44182;DHT22;30436;48.888;9.202;2022-10-16T11:16:31;26.50;99.90
44182;DHT22;30436;48.888;9.202;2022-10-16T11:19:12;26.40;99.90
44182;DHT22;30436;48.888;9.202;2022-10-16T11:24:55;27.40;99.90
44182;DHT22;30436;48.888;9.202;2022-10-16T11:30:27;27.70;98.70
44182;DHT22;30436;48.888;9.202;2022-10-16T11:35:55;29.10;96.30
44182;DHT22;30436;48.888;9.202;2022-10-16T11:41:08;30.50;90.90
44182;DHT22;30436;48.888;9.202;2022-10-16T11:43:42;30.50;91.50
44182;DHT22;30436;48.888;9.202;2022-10-16T11:46:18;31.10;84.30
44182;DHT22;30436;48.888;9.202;2022-10-16T11:52:17;33.10;70.10
44182;DHT22;30436;48.888;9.202;2022-10-16T11:54:51;34.10;70.10
44182;DHT22;30436;48.888;9.202;2022-10-16T11:57:22;33.40;66.60
44182;DHT22;30436;48.888;9.202;2022-10-16T11:59:52;33.90;65.10
44182;DHT22;30436;48.888;9.202;2022-10-16T12:02:40;34.10;63.80
44182;DHT22;30436;48.888;9.202;2022-10-16T12:08:14;35.50;59.90
44182;DHT22;30436;48.888;9.202;2022-10-16T12:10:42;36.90;59.40
44182;DHT22;30436;48.888;9.202;2022-10-16T12:13:29;37.40;55.80
44182;DHT22;30436;48.888;9.202;2022-10-16T12:16:21;36.80;54.60
44182;DHT22;30436;48.888;9.202;2022-10-16T12:18:48;35.10;54.00
44182;DHT22;30436;48.888;9.202;2022-10-16T12:21:16;34.30;58.80
44182;DHT22;30436;48.888;9.202;2022-10-16T12:24:03;32.80;60.70
44182;DHT22;30436;48.888;9.202;2022-10-16T12:26:33;32.60;61.80
44182;DHT22;30436;48.888;9.202;2022-10-16T12:32:48;31.60;64.60
44182;DHT22;30436;48.888;9.202;2022-10-16T12:34:49;30.70;68.10
44182;DHT22;30436;48.888;9.202;2022-10-16T12:37:21;30.70;70.50
44182;DHT22;30436;48.888;9.202;2022-10-16T12:39:48;30.90;68.70
44182;DHT22;30436;48.888;9.202;2022-10-16T12:42:32;32.00;64.90
44182;DHT22;30436;48.888;9.202;2022-10-16T12:44:59;33.80;60.50
44182;DHT22;30436;48.888;9.202;2022-10-16T12:49:57;35.30;57.70
44182;DHT22;30436;48.888;9.202;2022-10-16T12:52:26;36.60;55.80
44182;DHT22;30436;48.888;9.202;2022-10-16T12:54:56;38.20;53.70
44182;DHT22;30436;48.888;9.202;2022-10-16T12:57:50;38.80;51.70
44182;DHT22;30436;48.888;9.202;2022-10-16T13:08:51;35.20;57.20
44182;DHT22;30436;48.888;9.202;2022-10-16T13:19:51;32.00;63.80
44182;DHT22;30436;48.888;9.202;2022-10-16T13:22:41;31.40;62.30
44182;DHT22;30436;48.888;9.202;2022-10-16T13:25:32;30.90;64.20
44182;DHT22;30436;48.888;9.202;2022-10-16T13:28:06;30.40;67.60
44182;DHT22;30436;48.888;9.202;2022-10-16T13:30:52;30.50;66.50
44182;DHT22;30436;48.888;9.202;2022-10-16T13:35:56;30.10;66.90
44182;DHT22;30436;48.888;9.202;2022-10-16T13:38:25;29.50;70.00
44182;DHT22;30436;48.888;9.202;2022-10-16T13:40:56;28.70;71.30
44182;DHT22;30436;48.888;9.202;2022-10-16T13:43:27;28.00;72.40
44182;DHT22;30436;48.888;9.202;2022-10-16T13:45:58;27.90;75.90
44182;DHT22;30436;48.888;9.202;2022-10-16T13:48:24;27.80;75.40
44182;DHT22;30436;48.888;9.202;2022-10-16T13:53:36;27.30;77.20
44182;DHT22;30436;48.888;9.202;2022-10-16T13:56:06;27.10;78.60
44182;DHT22;30436;48.888;9.202;2022-10-16T13:58:33;27.30;79.80
44182;DHT22;30436;48.888;9.202;2022-10-16T14:03:07;27.20;75.60
44182;DHT22;30436;48.888;9.202;2022-10-16T14:05:47;26.90;78.80
44182;DHT22;30436;48.888;9.202;2022-10-16T14:08:13;26.60;78.90
44182;DHT22;30436;48.888;9.202;2022-10-16T14:10:39;26.60;83.40
44182;DHT22;30436;48.888;9.202;2022-10-16T14:13:06;26.40;82.40
44182;DHT22;30436;48.888;9.202;2022-10-16T14:15:35;26.40;83.00
44182;DHT22;30436;48.888;9.202;2022-10-16T14:18:02;26.20;86.30
44182;DHT22;30436;48.888;9.202;2022-10-16T14:20:31;26.10;86.30
44182;DHT22;30436;48.888;9.202;2022-10-16T14:23:19;25.90;86.10
44182;DHT22;30436;48.888;9.202;2022-10-16T14:25:45;25.90;86.80
44182;DHT22;30436;48.888;9.202;2022-10-16T14:28:15;25.80;87.80
44182;DHT22;30436;48.888;9.202;2022-10-16T14:30:56;25.70;90.00
44182;DHT22;30436;48.888;9.202;2022-10-16T14:33:24;25.60;90.50
44182;DHT22;30436;48.888;9.202;2022-10-16T14:36:14;25.60;89.40
44182;DHT22;30436;48.888;9.202;2022-10-16T14:39:03;25.40;88.80
44182;DHT22;30436;48.888;9.202;2022-10-16T14:41:31;25.30;88.80
44182;DHT22;30436;48.888;9.202;2022-10-16T14:44:02;25.40;89.00
44182;DHT22;30436;48.888;9.202;2022-10-16T14:46:35;25.30;90.70
44182;DHT22;30436;48.888;9.202;2022-10-16T14:51:40;25.30;90.70
44182;DHT22;30436;48.888;9.202;2022-10-16T14:54:09;25.10;92.00
44182;DHT22;30436;48.888;9.202;2022-10-16T14:59:18;25.10;93.50
44182;DHT22;30436;48.888;9.202;2022-10-16T15:02:40;25.20;92.60
44182;DHT22;30436;48.888;9.202;2022-10-16T15:05:25;25.10;93.20
44182;DHT22;30436;48.888;9.202;2022-10-16T15:07:55;25.10;93.00
44182;DHT22;30436;48.888;9.202;2022-10-16T15:10:25;25.00;92.60
44182;DHT22;30436;48.888;9.202;2022-10-16T15:12:52;25.00;94.60
44182;DHT22;30436;48.888;9.202;2022-10-16T15:15:29;24.90;93.80
44182;DHT22;30436;48.888;9.202;2022-10-16T15:17:56;24.80;94.30
44182;DHT22;30436;48.888;9.202;2022-10-16T15:20:27;24.80;93.90
44182;DHT22;30436;48.888;9.202;2022-10-16T15:22:52;24.50;96.80
44182;DHT22;30436;48.888;9.202;2022-10-16T15:27:57;24.50;95.50
44182;DHT22;30436;48.888;9.202;2022-10-16T15:30:23;24.50;96.90
44182;DHT22;30436;48.888;9.202;2022-10-16T15:32:55;24.20;97.00
44182;DHT22;30436;48.888;9.202;2022-10-16T15:35:30;24.10;96.20
44182;DHT22;30436;48.888;9.202;2022-10-16T15:37:56;24.20;99.30
44182;DHT22;30436;48.888;9.202;2022-10-16T15:40:22;24.10;97.30
44182;DHT22;30436;48.888;9.202;2022-10-16T15:42:48;24.00;98.10
44182;DHT22;30436;48.888;9.202;2022-10-16T15:45:15;24.00;99.90
44182;DHT22;30436;48.888;9.202;2022-10-16T15:47:42;23.90;98.30
44182;DHT22;30436;48.888;9.202;2022-10-16T15:50:12;23.80;99.20
44182;DHT22;30436;48.888;9.202;2022-10-16T15:52:39;23.90;99.90
44182;DHT22;30436;48.888;9.202;2022-10-16T15:55:06;23.80;99.90
44182;DHT22;30436;48.888;9.202;2022-10-16T15:57:32;23.70;99.90
44182;DHT22;30436;48.888;9.202;2022-10-16T15:59:58;23.80;99.90
44182;DHT22;30436;48.888;9.202;2022-10-16T16:02:23;23.50;99.90
44182;DHT22;30436;48.888;9.202;2022-10-16T16:04:49;23.70;99.90
44182;DHT22;30436;48.888;9.202;2022-10-16T16:07:15;23.60;99.90
44182;DHT22;30436;48.888;9.202;2022-10-16T16:09:40;23.50;99.90
44182;DHT22;30436;48.888;9.202;2022-10-16T16:12:06;23.50;99.90
44182;DHT22;30436;48.888;9.202;2022-10-16T16:14:31;23.40;99.90
44182;DHT22;30436;48.888;9.202;2022-10-16T16:16:58;23.40;99.90
44182;DHT22;30436;48.888;9.202;2022-10-16T16:19:23;23.30;99.90
44182;DHT22;30436;48.888;9.202;2022-10-16T16:21:50;23.20;99.90
44182;DHT22;30436;48.888;9.202;2022-10-16T16:24:16;23.10;99.90
44182;DHT22;30436;48.888;9.202;2022-10-16T16:26:42;23.00;99.90
44182;DHT22;30436;48.888;9.202;2022-10-16T16:29:13;23.10;99.90
44182;DHT22;30436;48.888;9.202;2022-10-16T16:31:40;22.90;99.90
44182;DHT22;30436;48.888;9.202;2022-10-16T16:34:06;22.80;99.90
44182;DHT22;30436;48.888;9.202;2022-10-16T16:36:32;22.70;99.90
44182;DHT22;30436;48.888;9.202;2022-10-16T16:38:58;22.60;99.90
44182;DHT22;30436;48.888;9.202;2022-10-16T16:41:26;22.50;99.90
44182;DHT22;30436;48.888;9.202;2022-10-16T16:43:53;22.60;99.90
44182;DHT22;30436;48.888;9.202;2022-10-16T16:46:21;22.50;99.90
44182;DHT22;30436;48.888;9.202;2022-10-16T16:48:47;22.40;99.90
44182;DHT22;30436;48.888;9.202;2022-10-16T16:51:16;22.30;99.90
44182;DHT22;30436;48.888;9.202;2022-10-16T16:53:47;22.30;99.90
44182;DHT22;30436;48.888;9.202;2022-10-16T16:56:13;22.30;99.90
44182;DHT22;30436;48.888;9.202;2022-10-16T16:58:39;22.20;99.90
44182;DHT22;30436;48.888;9.202;2022-10-16T17:01:05;22.20;99.90
44182;DHT22;30436;48.888;9.202;2022-10-16T17:03:33;22.20;99.90
44182;DHT22;30436;48.888;9.202;2022-10-16T17:06:04;22.10;99.90
44182;DHT22;30436;48.888;9.202;2022-10-16T17:08:31;22.00;99.90
44182;DHT22;30436;48.888;9.202;2022-10-16T17:10:57;22.00;99.90
44182;DHT22;30436;48.888;9.202;2022-10-16T17:13:25;22.00;99.90
44182;DHT22;30436;48.888;9.202;2022-10-16T17:15:52;22.10;99.90
44182;DHT22;30436;48.888;9.202;2022-10-16T17:18:19;22.00;99.90
44182;DHT22;30436;48.888;9.202;2022-10-16T17:20:45;22.00;99.90
44182;DHT22;30436;48.888;9.202;2022-10-16T17:23:12;21.90;99.90
44182;DHT22;30436;48.888;9.202;2022-10-16T17:25:38;21.70;99.90
44182;DHT22;30436;48.888;9.202;2022-10-16T17:28:04;21.70;99.90
44182;DHT22;30436;48.888;9.202;2022-10-16T17:30:31;21.60;99.90
44182;DHT22;30436;48.888;9.202;2022-10-16T17:32:58;21.60;99.90
44182;DHT22;30436;48.888;9.202;2022-10-16T17:35:24;21.50;99.90
44182;DHT22;30436;48.888;9.202;2022-10-16T17:37:51;21.50;99.90